Terminal Aerodrome Forecast
Issued by NWS

Home | Current Version | Previous Version | Text Only | Print | Product List | Glossary On
Versions: 1 2 3 4 5 6 7 8 9 10 11 12 13 14 15 16 17 18 19 20
581
FTUS44 KLIX 211744
TAFMSY
TAF
KMSY 211744Z 2118/2218 12011KT P6SM SCT025 BKN045
     FM212000 19009KT P6SM VCSH BKN035
      TEMPO 2120/2123 23020G30KT 2SM +TSRA BKN030CB
     FM220100 22013KT P6SM BKN010 PROB30 2204/2208 SHRA
     FM221500 25017KT P6SM SCT250=

USA.gov is the U.S. government's official web portal to all federal, state and local government web resources and services.